CheckWX is a tool to help pilots better visualize weather data.  It is not intended as a substitute for an official pre-flight weather briefing.

20:35:26 UTC

KP68 METAR
Eureka Airport
Nevada, USA
Current

42 mins ago

KP68 181953Z AUTO 01008KT M04/M09 A2999 RMK AO1 SLP192 T10441094
Observed
Feb-18 @ 19:53 UTC
Wind
  • 010° at 8 KTS
Visibility
Temperature
-4°C / 25°F
Dewpoint
-9°C / 16°F
Humidity
69%
Altimeter
29.99" Hg
Pressure
1019.2 hPa
Previous

2 hours ago

KP68 181853Z AUTO 33005KT M06/M09 A3000 RMK AO1 SLP194 T10561094
Observed
Feb-18 @ 18:53 UTC
Wind
  • 330° at 5 KTS
Visibility
Temperature
-6°C / 21°F
Dewpoint
-9°C / 16°F
Humidity
80%
Altimeter
30" Hg
Pressure
1019.4 hPa
Previous

3 hours ago

KP68 181753Z AUTO 00000KT M07/M10 A2999 RMK AO1 SLP202 60001 T10671100 11067 21094 51015
Observed
Feb-18 @ 17:53 UTC
Visibility
Temperature
-7°C / 19°F
Dewpoint
-10°C / 14°F
Humidity
79%
Altimeter
29.99" Hg
Pressure
1020.2 hPa